createdAt,value
2023-01-19T00:00:53.350Z,75.31
2023-01-19T00:03:19.962Z,75.12
2023-01-19T00:05:46.620Z,74.95
2023-01-19T00:08:17.616Z,74.88
2023-01-19T00:10:51.347Z,74.94
2023-01-19T00:13:18.012Z,74.72
2023-01-19T00:15:45.567Z,74.78
2023-01-19T00:18:12.247Z,74.77
2023-01-19T00:20:40.106Z,74.66
2023-01-19T00:23:08.261Z,74.66
2023-01-19T00:25:36.236Z,74.86
2023-01-19T00:28:02.983Z,74.93
2023-01-19T00:30:29.916Z,74.99
2023-01-19T00:32:57.042Z,74.98
2023-01-19T00:35:23.768Z,74.89
2023-01-19T00:37:50.597Z,74.77
2023-01-19T00:40:17.905Z,74.39
2023-01-19T00:42:44.615Z,74.42
2023-01-19T00:45:13.289Z,74.21
2023-01-19T00:47:40.340Z,74.21
2023-01-19T00:50:08.831Z,73.87
2023-01-19T00:52:35.510Z,73.63
2023-01-19T00:55:02.206Z,73.49
2023-01-19T00:57:29.665Z,73.64
2023-01-19T00:59:56.597Z,73.70
2023-01-19T01:02:23.836Z,73.74
2023-01-19T01:04:54.886Z,73.58
2023-01-19T01:07:22.633Z,73.27
2023-01-19T01:09:49.319Z,73.31
2023-01-19T01:12:16.438Z,73.00
2023-01-19T01:14:43.134Z,72.98
2023-01-19T01:17:11.511Z,72.82
2023-01-19T01:19:38.643Z,72.54
2023-01-19T01:22:06.044Z,72.45
2023-01-19T01:24:32.737Z,72.12
2023-01-19T01:26:59.433Z,72.29
2023-01-19T01:29:26.475Z,72.26
2023-01-19T01:31:53.196Z,72.10
2023-01-19T01:34:19.926Z,72.21
2023-01-19T01:36:46.631Z,72.29
2023-01-19T01:39:13.254Z,72.74
2023-01-19T01:41:39.823Z,72.79
2023-01-19T01:44:50.020Z,73.37
2023-01-19T01:47:28.757Z,73.37
2023-01-19T01:50:11.901Z,73.27
2023-01-19T01:53:07.364Z,73.46
2023-01-19T01:55:45.557Z,73.61
2023-01-19T01:58:14.285Z,73.61
2023-01-19T02:01:00.805Z,73.69
2023-01-19T02:03:28.692Z,73.65
2023-01-19T02:05:59.481Z,73.59
2023-01-19T02:08:56.553Z,73.59
2023-01-19T02:11:42.199Z,73.77
2023-01-19T02:14:08.862Z,74.30
2023-01-19T02:16:37.593Z,74.20
2023-01-19T02:19:07.317Z,74.37
2023-01-19T02:21:43.152Z,74.54
2023-01-19T02:24:11.018Z,74.71
2023-01-19T02:26:45.456Z,74.67
2023-01-19T02:29:15.756Z,74.61
2023-01-19T02:31:42.781Z,74.68
2023-01-19T02:34:12.689Z,74.73
2023-01-19T02:36:56.611Z,74.61
2023-01-19T02:39:37.018Z,74.77
2023-01-19T02:42:08.489Z,75.05
2023-01-19T02:44:37.869Z,75.28
2023-01-19T02:47:05.019Z,75.12
2023-01-19T02:49:32.076Z,75.22
2023-01-19T02:52:01.204Z,75.00
2023-01-19T02:54:49.527Z,75.12
2023-01-19T02:57:58.004Z,74.77
2023-01-19T03:00:56.651Z,75.00
2023-01-19T03:03:33.397Z,74.94
2023-01-19T03:06:26.151Z,75.11
2023-01-19T03:09:11.798Z,74.97
2023-01-19T03:11:42.032Z,75.06
2023-01-19T03:14:18.492Z,75.17
2023-01-19T03:16:55.638Z,75.22
2023-01-19T03:19:36.862Z,75.23
2023-01-19T03:22:21.623Z,75.27
2023-01-19T03:24:49.862Z,75.20
2023-01-19T03:27:23.272Z,75.04
2023-01-19T03:29:54.417Z,75.03
2023-01-19T03:32:25.295Z,75.06
2023-01-19T03:34:55.135Z,75.12
2023-01-19T03:37:24.168Z,74.95
2023-01-19T03:39:50.778Z,74.98
2023-01-19T03:42:18.290Z,75.14
2023-01-19T03:44:50.672Z,74.95
2023-01-19T03:47:19.450Z,75.16
2023-01-19T03:49:48.540Z,75.29
2023-01-19T03:52:15.267Z,75.03
2023-01-19T03:54:42.052Z,75.15
2023-01-19T03:57:08.699Z,75.01
2023-01-19T03:59:35.406Z,74.90
2023-01-19T04:02:02.444Z,74.81
2023-01-19T04:04:29.083Z,74.82
2023-01-19T04:06:55.659Z,74.92
2023-01-19T04:09:22.304Z,74.75
2023-01-19T04:11:48.922Z,74.70
2023-01-19T04:14:15.586Z,74.87
2023-01-19T04:16:42.224Z,74.89
2023-01-19T04:19:08.875Z,74.86
2023-01-19T04:21:36.091Z,74.53
2023-01-19T04:24:02.758Z,74.44
2023-01-19T04:26:29.592Z,74.44
2023-01-19T04:28:56.352Z,74.93
2023-01-19T04:31:23.456Z,75.23
2023-01-19T04:33:50.296Z,76.11
2023-01-19T04:36:17.402Z,76.13
2023-01-19T04:38:44.738Z,76.23
2023-01-19T04:41:11.311Z,76.43
2023-01-19T04:43:38.381Z,76.58
2023-01-19T04:46:05.258Z,76.70
2023-01-19T04:48:32.192Z,76.49
2023-01-19T04:50:58.808Z,76.38
2023-01-19T04:53:25.606Z,76.70
2023-01-19T04:55:55.825Z,76.75
2023-01-19T04:58:22.879Z,77.13
2023-01-19T05:00:51.167Z,77.52
2023-01-19T05:03:19.477Z,77.22
2023-01-19T05:05:46.650Z,77.31
2023-01-19T05:08:13.434Z,77.20
2023-01-19T05:10:40.040Z,77.17
2023-01-19T05:13:06.632Z,77.10
2023-01-19T05:15:33.265Z,76.97
2023-01-19T05:18:00.023Z,77.43
2023-01-19T05:20:26.738Z,77.60
2023-01-19T05:22:53.672Z,77.73
2023-01-19T05:25:20.912Z,77.45
2023-01-19T05:27:47.816Z,77.59
2023-01-19T05:30:14.969Z,77.52
2023-01-19T05:32:41.581Z,77.64
2023-01-19T05:35:08.989Z,77.81
2023-01-19T05:37:35.734Z,77.65
2023-01-19T05:40:02.409Z,77.97
2023-01-19T05:42:30.376Z,78.10
2023-01-19T05:44:59.572Z,78.19
2023-01-19T05:47:26.624Z,78.19
2023-01-19T05:49:53.447Z,78.17
2023-01-19T05:52:20.151Z,78.43
2023-01-19T05:54:46.798Z,78.51
2023-01-19T05:57:14.550Z,78.46
2023-01-19T05:59:41.519Z,78.34
2023-01-19T06:02:08.868Z,78.69
2023-01-19T06:04:35.538Z,78.95
2023-01-19T06:07:02.324Z,78.89
2023-01-19T06:09:29.401Z,79.14
2023-01-19T06:11:57.907Z,79.00
2023-01-19T06:14:25.185Z,79.18
2023-01-19T06:16:52.469Z,79.06
2023-01-19T06:19:19.116Z,78.99
2023-01-19T06:21:49.884Z,79.07
2023-01-19T06:24:16.569Z,79.19
2023-01-19T06:26:43.995Z,79.01
2023-01-19T06:29:12.331Z,79.12
2023-01-19T06:31:39.176Z,79.03
2023-01-19T06:34:05.865Z,78.92
2023-01-19T06:36:32.553Z,78.90
2023-01-19T06:38:59.316Z,78.76
2023-01-19T06:41:25.940Z,78.94
2023-01-19T06:43:52.537Z,78.92
2023-01-19T06:46:19.138Z,78.97
2023-01-19T06:48:45.732Z,78.83
2023-01-19T06:51:12.300Z,78.80
2023-01-19T06:53:39.222Z,78.63
2023-01-19T06:56:07.175Z,78.70
2023-01-19T06:58:34.945Z,78.61
2023-01-19T07:01:04.189Z,78.67
2023-01-19T07:03:31.576Z,78.53
2023-01-19T07:06:02.483Z,78.50
2023-01-19T07:08:30.372Z,78.26
2023-01-19T07:11:25.888Z,78.24
2023-01-19T07:13:51.727Z,77.66
2023-01-19T07:16:19.064Z,77.40
2023-01-19T07:18:49.995Z,77.74
2023-01-19T07:21:16.910Z,77.96
2023-01-19T07:23:43.708Z,77.94
2023-01-19T07:26:10.870Z,78.04
2023-01-19T07:28:37.626Z,78.15
2023-01-19T07:31:05.257Z,78.22
2023-01-19T07:33:32.021Z,78.19
2023-01-19T07:35:58.754Z,78.25
2023-01-19T07:38:25.632Z,78.14
2023-01-19T07:40:52.301Z,78.52
2023-01-19T07:43:19.602Z,78.35
2023-01-19T07:45:46.285Z,78.23
2023-01-19T07:48:13.011Z,78.30
2023-01-19T07:50:39.611Z,78.41
2023-01-19T07:53:07.870Z,78.24
2023-01-19T07:55:35.258Z,78.05
2023-01-19T07:58:04.052Z,77.91
2023-01-19T08:00:30.793Z,77.92
2023-01-19T08:03:01.173Z,77.95
2023-01-19T08:05:31.737Z,77.58
2023-01-19T08:07:58.818Z,77.83
2023-01-19T08:10:27.231Z,77.58
2023-01-19T08:12:55.396Z,77.80
2023-01-19T08:15:24.134Z,77.67
2023-01-19T08:17:59.178Z,77.93
2023-01-19T08:20:27.253Z,77.78
2023-01-19T08:23:01.409Z,77.77
2023-01-19T08:25:38.951Z,77.58
2023-01-19T08:28:06.943Z,77.51
2023-01-19T08:30:33.783Z,77.66
2023-01-19T08:33:04.502Z,77.86
2023-01-19T08:35:32.660Z,77.27
2023-01-19T08:38:01.614Z,77.38
2023-01-19T08:40:30.195Z,77.15
2023-01-19T08:43:05.607Z,77.01
2023-01-19T08:45:32.645Z,77.20
2023-01-19T08:47:59.768Z,77.52
2023-01-19T08:50:28.175Z,77.24
2023-01-19T08:53:00.322Z,77.53
2023-01-19T08:55:29.069Z,77.34
2023-01-19T08:57:58.196Z,77.62
2023-01-19T09:00:27.121Z,77.41
2023-01-19T09:02:54.977Z,77.63
2023-01-19T09:05:21.838Z,77.68
2023-01-19T09:07:48.635Z,77.60
2023-01-19T09:10:16.187Z,77.87
2023-01-19T09:12:44.886Z,78.05
2023-01-19T09:15:14.211Z,77.95
2023-01-19T09:17:42.388Z,78.32
2023-01-19T09:20:09.730Z,78.25
2023-01-19T09:22:36.448Z,78.39
2023-01-19T09:25:03.121Z,78.09
2023-01-19T09:27:30.765Z,78.35
2023-01-19T09:29:57.453Z,78.39
2023-01-19T09:32:24.323Z,78.48
2023-01-19T09:34:51.280Z,78.15
2023-01-19T09:37:18.072Z,78.59
2023-01-19T09:39:44.877Z,78.45
2023-01-19T09:42:27.899Z,78.35
2023-01-19T09:44:54.622Z,77.88
2023-01-19T09:47:25.320Z,77.83
2023-01-19T09:50:26.198Z,77.85
2023-01-19T09:52:58.198Z,78.00
2023-01-19T09:55:27.400Z,78.15
2023-01-19T09:57:54.959Z,78.04
2023-01-19T10:00:24.361Z,78.03
2023-01-19T10:03:16.236Z,78.22
2023-01-19T10:05:53.742Z,78.29
2023-01-19T10:08:25.996Z,78.25
2023-01-19T10:10:58.144Z,78.05
2023-01-19T10:13:34.303Z,77.70
2023-01-19T10:16:22.300Z,77.36
2023-01-19T10:18:51.948Z,77.18
2023-01-19T10:21:26.429Z,77.29
2023-01-19T10:23:58.585Z,77.44
2023-01-19T10:26:33.968Z,77.41
2023-01-19T10:29:29.204Z,77.46
2023-01-19T10:32:22.461Z,77.46
2023-01-19T10:34:50.702Z,77.31
2023-01-19T10:37:29.751Z,77.36
2023-01-19T10:40:02.352Z,77.36
2023-01-19T10:42:30.902Z,77.51
2023-01-19T10:44:57.893Z,77.48
2023-01-19T10:47:34.587Z,77.51
2023-01-19T10:50:23.496Z,77.52
2023-01-19T10:52:53.585Z,77.90
2023-01-19T10:55:29.329Z,77.73
2023-01-19T10:57:57.476Z,77.83
2023-01-19T11:00:40.988Z,77.75
2023-01-19T11:03:24.058Z,77.85
2023-01-19T11:05:51.570Z,77.53
2023-01-19T11:08:30.462Z,77.85
2023-01-19T11:11:05.186Z,77.48
2023-01-19T11:13:32.490Z,77.73
2023-01-19T11:16:06.748Z,77.93
2023-01-19T11:18:39.273Z,78.37
2023-01-19T11:21:16.381Z,78.24
2023-01-19T11:23:52.760Z,78.24
2023-01-19T11:26:29.178Z,78.22
2023-01-19T11:28:58.030Z,78.13
2023-01-19T11:31:27.822Z,78.09
2023-01-19T11:33:57.833Z,77.75
2023-01-19T11:36:30.921Z,77.62
2023-01-19T11:39:19.202Z,77.95
2023-01-19T11:41:51.210Z,77.89
2023-01-19T11:44:29.306Z,77.74
2023-01-19T11:47:01.033Z,77.41
2023-01-19T11:49:44.556Z,77.17
2023-01-19T11:52:31.186Z,77.40
2023-01-19T11:55:08.151Z,77.12
2023-01-19T11:57:34.847Z,77.16
2023-01-19T12:00:14.919Z,76.95
2023-01-19T12:02:48.832Z,76.49
2023-01-19T12:05:20.367Z,76.90
2023-01-19T12:07:49.264Z,77.13
2023-01-19T12:10:30.402Z,76.96
2023-01-19T12:12:58.548Z,76.80
2023-01-19T12:15:35.779Z,76.33
2023-01-19T12:18:05.322Z,75.88
2023-01-19T12:20:37.161Z,76.07
2023-01-19T12:23:22.574Z,75.99
2023-01-19T12:26:18.790Z,76.15
2023-01-19T12:28:51.147Z,75.83
2023-01-19T12:31:20.808Z,76.10
2023-01-19T12:33:47.525Z,76.29
2023-01-19T12:36:16.944Z,76.60
2023-01-19T12:38:52.278Z,76.50
2023-01-19T12:41:26.487Z,76.60
2023-01-19T12:44:11.414Z,76.29
2023-01-19T12:46:39.207Z,75.55
2023-01-19T12:49:14.899Z,75.68
2023-01-19T12:51:42.057Z,75.65
2023-01-19T12:54:21.329Z,75.04
2023-01-19T12:56:48.159Z,74.72
2023-01-19T12:59:26.620Z,74.84
2023-01-19T13:02:18.476Z,75.08
2023-01-19T13:05:32.388Z,74.31
2023-01-19T13:08:02.720Z,74.36
2023-01-19T13:11:10.896Z,74.43
2023-01-19T13:13:49.614Z,73.94
2023-01-19T13:16:19.291Z,73.46
2023-01-19T13:18:50.721Z,73.53
2023-01-19T13:21:34.699Z,73.74
2023-01-19T13:24:05.637Z,74.04
2023-01-19T13:26:39.355Z,73.88
2023-01-19T13:29:11.197Z,73.58
2023-01-19T13:31:40.403Z,73.11
2023-01-19T13:34:16.935Z,73.03
2023-01-19T13:36:46.715Z,72.66
2023-01-19T13:39:38.169Z,73.13
2023-01-19T13:42:09.310Z,72.13
2023-01-19T13:44:47.163Z,71.31
2023-01-19T13:47:21.618Z,70.99
2023-01-19T13:49:54.840Z,71.29
2023-01-19T13:52:27.277Z,70.99
2023-01-19T13:55:03.277Z,70.95
2023-01-19T13:57:42.412Z,71.27
2023-01-19T14:00:12.625Z,71.81
2023-01-19T14:02:59.486Z,71.64
2023-01-19T14:05:37.779Z,72.15
2023-01-19T14:08:13.588Z,71.70
2023-01-19T14:11:03.176Z,71.46
2023-01-19T14:13:34.696Z,71.28
2023-01-19T14:16:06.318Z,71.37
2023-01-19T14:18:35.354Z,71.29
2023-01-19T14:21:22.212Z,71.20
2023-01-19T14:23:50.273Z,71.54
2023-01-19T14:27:02.131Z,71.88
2023-01-19T14:29:29.624Z,71.29
2023-01-19T14:32:13.920Z,71.21
2023-01-19T14:34:42.053Z,71.17
2023-01-19T14:37:26.427Z,69.69
2023-01-19T14:39:55.916Z,70.14
2023-01-19T14:42:31.795Z,70.84
2023-01-19T14:45:02.097Z,71.00
2023-01-19T14:47:37.073Z,70.95
2023-01-19T14:50:19.061Z,70.71
2023-01-19T14:52:52.618Z,70.48
2023-01-19T14:55:34.062Z,70.87
2023-01-19T14:58:01.161Z,70.91
2023-01-19T15:00:28.536Z,70.79
2023-01-19T15:02:55.384Z,70.88
2023-01-19T15:05:23.264Z,70.65
2023-01-19T15:07:50.077Z,70.05
2023-01-19T15:10:22.670Z,69.99
2023-01-19T15:12:51.458Z,70.34
2023-01-19T15:15:27.462Z,70.37
2023-01-19T15:17:56.145Z,70.59
2023-01-19T15:20:23.154Z,70.70
2023-01-19T15:22:50.215Z,70.48
2023-01-19T15:25:19.338Z,70.59
2023-01-19T15:27:47.136Z,70.82
2023-01-19T15:30:27.859Z,71.40
2023-01-19T15:32:54.536Z,71.27
2023-01-19T15:35:23.222Z,70.77
2023-01-19T15:37:50.873Z,70.93
2023-01-19T15:40:19.190Z,70.93
2023-01-19T15:42:46.215Z,70.28
2023-01-19T15:45:23.256Z,70.59
2023-01-19T15:47:49.885Z,70.15
2023-01-19T15:50:16.994Z,70.31
2023-01-19T15:52:43.795Z,70.36
2023-01-19T15:55:12.046Z,70.11
2023-01-19T15:57:38.699Z,69.97
2023-01-19T16:00:06.524Z,69.73
2023-01-19T16:02:37.592Z,70.05
2023-01-19T16:05:05.115Z,69.98
2023-01-19T16:07:33.784Z,70.18
2023-01-19T16:10:01.184Z,70.49
2023-01-19T16:12:30.840Z,70.56
2023-01-19T16:14:57.497Z,70.78
2023-01-19T16:17:24.123Z,70.90
2023-01-19T16:19:50.745Z,71.15
2023-01-19T16:22:17.338Z,70.95
2023-01-19T16:24:44.012Z,71.39
2023-01-19T16:27:10.649Z,71.69
2023-01-19T16:29:37.273Z,71.96
2023-01-19T16:32:04.001Z,72.11
2023-01-19T16:34:31.274Z,72.13
2023-01-19T16:36:57.935Z,72.19
2023-01-19T16:39:24.538Z,72.71
2023-01-19T16:41:51.171Z,72.89
2023-01-19T16:44:17.951Z,72.92
2023-01-19T16:46:46.243Z,72.70
2023-01-19T16:49:28.084Z,72.72
2023-01-19T16:51:54.971Z,73.11
2023-01-19T16:54:25.992Z,72.51
2023-01-19T16:56:54.492Z,72.77
2023-01-19T16:59:22.392Z,72.78
2023-01-19T17:01:53.161Z,72.46
2023-01-19T17:04:21.614Z,72.38
2023-01-19T17:06:48.292Z,72.40
2023-01-19T17:09:15.035Z,72.34
2023-01-19T17:11:42.628Z,71.94
2023-01-19T17:14:23.155Z,72.36
2023-01-19T17:16:49.787Z,71.59
2023-01-19T17:19:18.717Z,70.86
2023-01-19T17:21:46.405Z,70.75
2023-01-19T17:24:13.035Z,70.88
2023-01-19T17:26:39.712Z,70.61
2023-01-19T17:29:08.483Z,70.41
2023-01-19T17:31:36.303Z,70.42
2023-01-19T17:34:03.467Z,70.07
2023-01-19T17:36:31.609Z,70.08
2023-01-19T17:39:00.859Z,70.14
2023-01-19T17:41:30.290Z,70.52
2023-01-19T17:43:57.683Z,70.50
2023-01-19T17:46:26.671Z,70.54
2023-01-19T17:49:01.966Z,70.24
2023-01-19T17:51:30.056Z,70.09
2023-01-19T17:53:57.678Z,69.85
2023-01-19T17:56:29.503Z,70.04
2023-01-19T17:58:58.092Z,70.01
2023-01-19T18:01:33.731Z,70.00
2023-01-19T18:04:02.593Z,70.26
2023-01-19T18:06:29.372Z,70.57
2023-01-19T18:08:57.793Z,70.41
2023-01-19T18:11:24.573Z,70.41
2023-01-19T18:13:51.887Z,70.19
2023-01-19T18:16:22.145Z,69.53
2023-01-19T18:18:49.934Z,70.10
2023-01-19T18:21:17.732Z,69.78
2023-01-19T18:23:45.233Z,69.98
2023-01-19T18:26:19.036Z,69.97
2023-01-19T18:28:46.547Z,69.86
2023-01-19T18:31:16.184Z,69.75
2023-01-19T18:33:43.025Z,69.55
2023-01-19T18:36:10.846Z,69.89
2023-01-19T18:38:38.684Z,69.88
2023-01-19T18:41:08.776Z,69.50
2023-01-19T18:43:35.773Z,69.68
2023-01-19T18:46:02.566Z,69.85
2023-01-19T18:48:31.216Z,69.97
2023-01-19T18:50:57.997Z,69.74
2023-01-19T18:53:24.598Z,69.49
2023-01-19T18:55:53.233Z,70.01
2023-01-19T18:58:20.309Z,69.88
2023-01-19T19:00:47.734Z,69.61
2023-01-19T19:03:14.537Z,69.60
2023-01-19T19:05:41.275Z,69.14
2023-01-19T19:08:08.626Z,69.16
2023-01-19T19:10:35.612Z,69.13
2023-01-19T19:13:02.594Z,69.76
2023-01-19T19:15:29.443Z,69.73
2023-01-19T19:17:56.042Z,69.75
2023-01-19T19:20:23.447Z,69.73
2023-01-19T19:22:51.777Z,69.97
2023-01-19T19:25:18.448Z,70.50
2023-01-19T19:27:47.838Z,70.35
2023-01-19T19:30:15.074Z,70.36
2023-01-19T19:32:42.221Z,70.44
2023-01-19T19:35:09.331Z,70.28
2023-01-19T19:37:35.981Z,70.13
2023-01-19T19:40:02.656Z,70.13
2023-01-19T19:42:30.239Z,70.01
2023-01-19T19:44:56.896Z,69.62
2023-01-19T19:47:24.510Z,69.80
2023-01-19T19:49:51.151Z,69.79
2023-01-19T19:52:17.799Z,69.96
2023-01-19T19:54:45.292Z,70.22
2023-01-19T19:57:11.891Z,70.00
2023-01-19T19:59:38.551Z,69.84
2023-01-19T20:02:05.427Z,70.01
2023-01-19T20:04:32.235Z,70.27
2023-01-19T20:07:00.131Z,70.19
2023-01-19T20:09:26.819Z,70.30
2023-01-19T20:11:53.469Z,70.66
2023-01-19T20:14:21.250Z,71.23
2023-01-19T20:16:48.369Z,71.20
2023-01-19T20:19:15.123Z,71.15
2023-01-19T20:21:42.999Z,71.24
2023-01-19T20:24:16.236Z,71.16
2023-01-19T20:26:48.347Z,71.25
2023-01-19T20:29:15.095Z,71.34
2023-01-19T20:31:54.941Z,71.53
2023-01-19T20:34:25.260Z,71.58
2023-01-19T20:36:53.843Z,71.60
2023-01-19T20:39:22.561Z,71.37
2023-01-19T20:41:51.319Z,71.46
2023-01-19T20:44:20.876Z,71.73
2023-01-19T20:46:48.229Z,71.70
2023-01-19T20:49:14.967Z,71.94
2023-01-19T20:51:45.262Z,72.16
2023-01-19T20:54:14.232Z,72.07
2023-01-19T20:56:41.630Z,72.23
2023-01-19T20:59:09.937Z,72.03
2023-01-19T21:01:37.425Z,71.95
2023-01-19T21:04:04.322Z,72.04
2023-01-19T21:06:31.084Z,71.89
2023-01-19T21:08:57.945Z,71.59
2023-01-19T21:11:25.526Z,71.63
2023-01-19T21:13:56.144Z,71.60
2023-01-19T21:16:29.770Z,71.58
2023-01-19T21:18:56.479Z,71.68
2023-01-19T21:21:30.740Z,71.49
2023-01-19T21:23:59.786Z,71.42
2023-01-19T21:26:26.876Z,71.66
2023-01-19T21:28:53.799Z,71.60
2023-01-19T21:31:23.116Z,71.72
2023-01-19T21:33:53.561Z,71.30
2023-01-19T21:36:21.224Z,71.36
2023-01-19T21:38:48.407Z,71.61
2023-01-19T21:41:16.368Z,71.54
2023-01-19T21:43:43.244Z,71.74
2023-01-19T21:46:17.201Z,71.68
2023-01-19T21:48:44.054Z,71.56
2023-01-19T21:51:10.659Z,71.66
2023-01-19T21:53:37.532Z,71.92
2023-01-19T21:56:11.100Z,71.84
2023-01-19T21:58:38.252Z,71.51
2023-01-19T22:01:10.851Z,72.07
2023-01-19T22:03:37.669Z,72.17
2023-01-19T22:06:10.242Z,72.49
2023-01-19T22:08:37.315Z,72.70
2023-01-19T22:11:08.972Z,72.72
2023-01-19T22:13:38.492Z,72.67
2023-01-19T22:16:11.206Z,72.03
2023-01-19T22:18:40.146Z,71.80
2023-01-19T22:21:12.331Z,71.74
2023-01-19T22:23:39.801Z,71.40
2023-01-19T22:26:07.552Z,71.67
2023-01-19T22:28:34.727Z,71.96
2023-01-19T22:31:10.784Z,71.94
2023-01-19T22:33:37.655Z,71.67
2023-01-19T22:36:13.543Z,71.66
2023-01-19T22:38:40.836Z,71.95
2023-01-19T22:41:13.597Z,72.03
2023-01-19T22:43:40.297Z,71.49
2023-01-19T22:46:08.717Z,71.27
2023-01-19T22:48:35.660Z,70.97
2023-01-19T22:51:02.703Z,70.98
2023-01-19T22:53:31.584Z,70.87
2023-01-19T22:55:58.167Z,71.01
2023-01-19T22:58:24.809Z,70.91
2023-01-19T23:00:51.491Z,70.78
2023-01-19T23:03:18.280Z,70.86
2023-01-19T23:05:44.934Z,70.95
2023-01-19T23:08:11.591Z,70.99
2023-01-19T23:10:40.177Z,71.24
2023-01-19T23:13:06.928Z,71.44
2023-01-19T23:15:34.933Z,71.16
2023-01-19T23:18:01.856Z,71.38
2023-01-19T23:20:28.544Z,71.48
2023-01-19T23:22:55.212Z,71.41
2023-01-19T23:25:21.851Z,71.00
2023-01-19T23:27:48.564Z,71.03
2023-01-19T23:30:15.506Z,71.16
2023-01-19T23:32:46.993Z,71.48
2023-01-19T23:35:14.729Z,71.67
2023-01-19T23:37:41.682Z,71.53
2023-01-19T23:40:10.479Z,71.38
2023-01-19T23:42:37.142Z,70.96
2023-01-19T23:45:04.182Z,71.44
2023-01-19T23:47:30.985Z,71.62
2023-01-19T23:49:57.548Z,71.94
2023-01-19T23:52:24.255Z,71.69
2023-01-19T23:54:51.210Z,71.97
2023-01-19T23:57:17.856Z,71.75
2023-01-19T23:59:44.608Z,71.32
